sensor_id;sensor_type;location;lat;lon;timestamp;pressure;altitude;pressure_sealevel;temperature;humidity
29359;BME280;16347;53.232;6.556;2023-05-11T00:01:27;101486.84;;;15.64;65.16
29359;BME280;16347;53.232;6.556;2023-05-11T00:03:55;101485.78;;;15.65;65.12
29359;BME280;16347;53.232;6.556;2023-05-11T00:06:23;101479.47;;;15.64;65.15
29359;BME280;16347;53.232;6.556;2023-05-11T00:08:51;101478.25;;;15.67;65.11
29359;BME280;16347;53.232;6.556;2023-05-11T00:11:19;101481.00;;;15.67;65.39
29359;BME280;16347;53.232;6.556;2023-05-11T00:13:47;101480.16;;;15.66;65.55
29359;BME280;16347;53.232;6.556;2023-05-11T00:16:16;101483.91;;;15.65;65.18
29359;BME280;16347;53.232;6.556;2023-05-11T00:18:44;101474.81;;;15.65;65.37
29359;BME280;16347;53.232;6.556;2023-05-11T00:21:12;101475.69;;;15.65;65.49
29359;BME280;16347;53.232;6.556;2023-05-11T00:23:40;101466.59;;;15.65;65.42
29359;BME280;16347;53.232;6.556;2023-05-11T00:26:07;101478.41;;;15.65;65.26
29359;BME280;16347;53.232;6.556;2023-05-11T00:28:36;101479.28;;;15.66;64.91
29359;BME280;16347;53.232;6.556;2023-05-11T00:31:04;101479.63;;;15.63;65.05
29359;BME280;16347;53.232;6.556;2023-05-11T00:33:33;101474.81;;;15.65;65.36
29359;BME280;16347;53.232;6.556;2023-05-11T00:36:02;101479.13;;;15.59;65.34
29359;BME280;16347;53.232;6.556;2023-05-11T00:38:30;101474.31;;;15.61;65.34
29359;BME280;16347;53.232;6.556;2023-05-11T00:40:58;101469.03;;;15.60;65.43
29359;BME280;16347;53.232;6.556;2023-05-11T00:43:26;101470.75;;;15.61;65.34
29359;BME280;16347;53.232;6.556;2023-05-11T00:45:54;101472.44;;;15.62;65.10
29359;BME280;16347;53.232;6.556;2023-05-11T00:48:22;101465.63;;;15.58;64.97
29359;BME280;16347;53.232;6.556;2023-05-11T00:50:51;101464.25;;;15.54;64.79
29359;BME280;16347;53.232;6.556;2023-05-11T00:53:19;101464.25;;;15.54;64.72
29359;BME280;16347;53.232;6.556;2023-05-11T00:55:47;101469.72;;;15.46;64.82
29359;BME280;16347;53.232;6.556;2023-05-11T00:58:15;101469.91;;;15.44;65.21
29359;BME280;16347;53.232;6.556;2023-05-11T01:00:43;101472.47;;;15.46;65.71
29359;BME280;16347;53.232;6.556;2023-05-11T01:03:16;101473.00;;;15.49;65.74
29359;BME280;16347;53.232;6.556;2023-05-11T01:05:48;101476.44;;;15.51;65.43
29359;BME280;16347;53.232;6.556;2023-05-11T01:08:23;101476.22;;;15.45;64.69
29359;BME280;16347;53.232;6.556;2023-05-11T01:10:59;101482.56;;;15.45;65.72
29359;BME280;16347;53.232;6.556;2023-05-11T01:13:32;101478.28;;;15.43;66.06
29359;BME280;16347;53.232;6.556;2023-05-11T01:16:07;101486.00;;;15.47;65.98
29359;BME280;16347;53.232;6.556;2023-05-11T01:18:44;101477.94;;;15.46;65.67
29359;BME280;16347;53.232;6.556;2023-05-11T01:21:17;101477.94;;;15.46;65.57
29359;BME280;16347;53.232;6.556;2023-05-11T01:24:11;101479.19;;;15.51;65.59
29359;BME280;16347;53.232;6.556;2023-05-11T01:27:02;101480.00;;;15.44;65.64
29359;BME280;16347;53.232;6.556;2023-05-11T01:29:55;101483.59;;;15.52;65.73
29359;BME280;16347;53.232;6.556;2023-05-11T01:32:31;101476.22;;;15.45;65.89
29359;BME280;16347;53.232;6.556;2023-05-11T01:35:06;101472.13;;;15.40;65.88
29359;BME280;16347;53.232;6.556;2023-05-11T01:37:35;101468.19;;;15.43;65.89
29359;BME280;16347;53.232;6.556;2023-05-11T01:40:11;101469.41;;;15.40;66.39
29359;BME280;16347;53.232;6.556;2023-05-11T01:42:43;101475.19;;;15.46;66.11
29359;BME280;16347;53.232;6.556;2023-05-11T01:45:12;101463.22;;;15.47;66.04
29359;BME280;16347;53.232;6.556;2023-05-11T01:47:42;101472.66;;;15.36;66.01
29359;BME280;16347;53.232;6.556;2023-05-11T01:50:12;101476.06;;;15.38;65.97
29359;BME280;16347;53.232;6.556;2023-05-11T01:52:43;101475.03;;;15.39;66.18
29359;BME280;16347;53.232;6.556;2023-05-11T01:55:13;101473.00;;;15.41;66.26
29359;BME280;16347;53.232;6.556;2023-05-11T01:57:44;101465.81;;;15.40;65.91
29359;BME280;16347;53.232;6.556;2023-05-11T02:00:14;101474.19;;;15.38;66.40
29359;BME280;16347;53.232;6.556;2023-05-11T02:02:46;101475.03;;;15.39;66.35
29359;BME280;16347;53.232;6.556;2023-05-11T02:05:22;101479.31;;;15.41;66.24
29359;BME280;16347;53.232;6.556;2023-05-11T02:07:51;101470.25;;;15.41;66.21
29359;BME280;16347;53.232;6.556;2023-05-11T02:10:24;101476.75;;;15.40;66.65
29359;BME280;16347;53.232;6.556;2023-05-11T02:12:53;101483.25;;;15.39;66.42
29359;BME280;16347;53.232;6.556;2023-05-11T02:15:24;101483.25;;;15.39;65.83
29359;BME280;16347;53.232;6.556;2023-05-11T02:17:54;101490.63;;;15.38;66.55
29359;BME280;16347;53.232;6.556;2023-05-11T02:20:23;101484.97;;;15.40;66.49
29359;BME280;16347;53.232;6.556;2023-05-11T02:22:53;101482.91;;;15.42;66.42
29359;BME280;16347;53.232;6.556;2023-05-11T02:25:21;101486.50;;;15.43;66.28
29359;BME280;16347;53.232;6.556;2023-05-11T02:27:50;101485.66;;;15.42;66.29
29359;BME280;16347;53.232;6.556;2023-05-11T02:30:18;101482.06;;;15.41;66.19
29359;BME280;16347;53.232;6.556;2023-05-11T02:32:50;101482.91;;;15.42;66.28
29359;BME280;16347;53.232;6.556;2023-05-11T02:35:23;101482.91;;;15.42;66.36
29359;BME280;16347;53.232;6.556;2023-05-11T02:37:55;101481.38;;;15.39;66.20
29359;BME280;16347;53.232;6.556;2023-05-11T02:40:29;101479.84;;;15.37;66.09
29359;BME280;16347;53.232;6.556;2023-05-11T02:43:06;101483.25;;;15.39;65.96
29359;BME280;16347;53.232;6.556;2023-05-11T02:45:36;101486.50;;;15.34;66.21
29359;BME280;16347;53.232;6.556;2023-05-11T02:48:10;101498.19;;;15.36;65.94
29359;BME280;16347;53.232;6.556;2023-05-11T02:50:41;101506.03;;;15.31;66.09
29359;BME280;16347;53.232;6.556;2023-05-11T02:53:13;101505.88;;;15.33;66.00
29359;BME280;16347;53.232;6.556;2023-05-11T02:55:44;101503.31;;;15.31;66.67
29359;BME280;16347;53.232;6.556;2023-05-11T02:58:13;101501.63;;;15.30;66.72
29359;BME280;16347;53.232;6.556;2023-05-11T03:00:45;101503.50;;;15.30;66.33
29359;BME280;16347;53.232;6.556;2023-05-11T03:03:13;101498.69;;;15.32;66.30
29359;BME280;16347;53.232;6.556;2023-05-11T03:05:43;101511.00;;;15.36;66.52
29359;BME280;16347;53.232;6.556;2023-05-11T03:08:11;101512.75;;;15.37;66.29
29359;BME280;16347;53.232;6.556;2023-05-11T03:10:39;101503.66;;;15.36;65.98
29359;BME280;16347;53.232;6.556;2023-05-11T03:13:08;101503.66;;;15.36;66.22
29359;BME280;16347;53.232;6.556;2023-05-11T03:15:36;101503.66;;;15.36;66.16
29359;BME280;16347;53.232;6.556;2023-05-11T03:18:05;101504.00;;;15.33;65.90
29359;BME280;16347;53.232;6.556;2023-05-11T03:20:35;101511.72;;;15.30;65.88
29359;BME280;16347;53.232;6.556;2023-05-11T03:23:06;101511.88;;;15.28;65.55
29359;BME280;16347;53.232;6.556;2023-05-11T03:25:34;101507.09;;;15.30;66.08
29359;BME280;16347;53.232;6.556;2023-05-11T03:28:03;101503.31;;;15.31;65.97
29359;BME280;16347;53.232;6.556;2023-05-11T03:30:33;101508.28;;;15.28;66.11
29359;BME280;16347;53.232;6.556;2023-05-11T03:33:02;101511.88;;;15.28;66.38
29359;BME280;16347;53.232;6.556;2023-05-11T03:35:32;101509.84;;;15.30;66.22
29359;BME280;16347;53.232;6.556;2023-05-11T03:38:04;101511.53;;;15.31;66.57
29359;BME280;16347;53.232;6.556;2023-05-11T03:40:33;101509.66;;;15.32;66.41
29359;BME280;16347;53.232;6.556;2023-05-11T03:43:01;101509.66;;;15.32;66.50
29359;BME280;16347;53.232;6.556;2023-05-11T03:45:32;101509.84;;;15.30;66.80
29359;BME280;16347;53.232;6.556;2023-05-11T03:48:04;101503.81;;;15.35;66.89
29359;BME280;16347;53.232;6.556;2023-05-11T03:50:33;101508.28;;;15.36;66.66
29359;BME280;16347;53.232;6.556;2023-05-11T03:53:02;101498.34;;;15.35;66.43
29359;BME280;16347;53.232;6.556;2023-05-11T03:55:31;101502.94;;;15.34;66.82
29359;BME280;16347;53.232;6.556;2023-05-11T03:58:00;101499.53;;;15.32;66.67
29359;BME280;16347;53.232;6.556;2023-05-11T04:00:30;101495.59;;;15.35;66.80
29359;BME280;16347;53.232;6.556;2023-05-11T04:03:02;101497.47;;;15.34;67.04
29359;BME280;16347;53.232;6.556;2023-05-11T04:05:33;101497.16;;;15.37;66.77
29359;BME280;16347;53.232;6.556;2023-05-11T04:08:04;101509.28;;;15.35;66.76
29359;BME280;16347;53.232;6.556;2023-05-11T04:10:34;101505.88;;;15.33;67.23
29359;BME280;16347;53.232;6.556;2023-05-11T04:13:03;101501.06;;;15.35;66.92
29359;BME280;16347;53.232;6.556;2023-05-11T04:15:32;101501.06;;;15.35;67.07
29359;BME280;16347;53.232;6.556;2023-05-11T04:18:02;101501.78;;;15.37;67.22
29359;BME280;16347;53.232;6.556;2023-05-11T04:20:30;101504.31;;;15.38;67.16
29359;BME280;16347;53.232;6.556;2023-05-11T04:22:58;101499.53;;;15.40;67.02
29359;BME280;16347;53.232;6.556;2023-05-11T04:25:26;101495.94;;;15.40;67.26
29359;BME280;16347;53.232;6.556;2023-05-11T04:27:55;101499.53;;;15.40;67.05
29359;BME280;16347;53.232;6.556;2023-05-11T04:30:24;101505.69;;;15.43;67.48
29359;BME280;16347;53.232;6.556;2023-05-11T04:32:52;101506.56;;;15.43;67.19
29359;BME280;16347;53.232;6.556;2023-05-11T04:35:20;101502.44;;;15.47;67.30
29359;BME280;16347;53.232;6.556;2023-05-11T04:37:49;101502.44;;;15.47;67.03
29359;BME280;16347;53.232;6.556;2023-05-11T04:40:17;101502.78;;;15.44;66.89
29359;BME280;16347;53.232;6.556;2023-05-11T04:42:46;101500.72;;;15.46;66.71
29359;BME280;16347;53.232;6.556;2023-05-11T04:45:19;101499.19;;;15.44;66.73
29359;BME280;16347;53.232;6.556;2023-05-11T04:47:47;101496.81;;;15.40;66.87
29359;BME280;16347;53.232;6.556;2023-05-11T04:50:15;101502.94;;;15.43;66.78
29359;BME280;16347;53.232;6.556;2023-05-11T04:52:43;101501.06;;;15.43;66.68
29359;BME280;16347;53.232;6.556;2023-05-11T04:55:11;101502.44;;;15.39;66.65
29359;BME280;16347;53.232;6.556;2023-05-11T04:57:39;101502.44;;;15.39;66.91
29359;BME280;16347;53.232;6.556;2023-05-11T05:00:08;101507.06;;;15.38;66.91
29359;BME280;16347;53.232;6.556;2023-05-11T05:02:37;101506.03;;;15.39;67.06
29359;BME280;16347;53.232;6.556;2023-05-11T05:05:06;101506.03;;;15.39;66.98
29359;BME280;16347;53.232;6.556;2023-05-11T05:07:34;101509.66;;;15.40;67.09
29359;BME280;16347;53.232;6.556;2023-05-11T05:10:03;101508.13;;;15.37;66.89
29359;BME280;16347;53.232;6.556;2023-05-11T05:12:34;101507.25;;;15.37;66.75
29359;BME280;16347;53.232;6.556;2023-05-11T05:15:04;101513.75;;;15.36;67.12
29359;BME280;16347;53.232;6.556;2023-05-11T05:17:34;101519.25;;;15.36;67.05
29359;BME280;16347;53.232;6.556;2023-05-11T05:20:06;101529.34;;;15.35;67.08
29359;BME280;16347;53.232;6.556;2023-05-11T05:22:34;101535.53;;;15.37;66.87
29359;BME280;16347;53.232;6.556;2023-05-11T05:25:02;101537.22;;;15.38;66.85
29359;BME280;16347;53.232;6.556;2023-05-11T05:27:31;101536.34;;;15.38;67.03
29359;BME280;16347;53.232;6.556;2023-05-11T05:30:04;101541.66;;;15.39;67.21
29359;BME280;16347;53.232;6.556;2023-05-11T05:32:33;101552.78;;;15.38;66.86
29359;BME280;16347;53.232;6.556;2023-05-11T05:35:01;101554.50;;;15.39;66.97
29359;BME280;16347;53.232;6.556;2023-05-11T05:37:31;101554.69;;;15.37;66.96
29359;BME280;16347;53.232;6.556;2023-05-11T05:39:59;101564.09;;;15.35;67.12
29359;BME280;16347;53.232;6.556;2023-05-11T05:42:27;101574.56;;;15.39;67.21
29359;BME280;16347;53.232;6.556;2023-05-11T05:44:55;101563.44;;;15.41;67.22
29359;BME280;16347;53.232;6.556;2023-05-11T05:47:23;101566.84;;;15.43;67.13
29359;BME280;16347;53.232;6.556;2023-05-11T05:49:51;101564.25;;;15.41;67.02
29359;BME280;16347;53.232;6.556;2023-05-11T05:52:19;101562.38;;;15.42;66.84
29359;BME280;16347;53.232;6.556;2023-05-11T05:54:49;101573.00;;;15.45;66.82
29359;BME280;16347;53.232;6.556;2023-05-11T05:57:17;101573.69;;;15.47;66.89
29359;BME280;16347;53.232;6.556;2023-05-11T05:59:46;101581.41;;;15.52;66.83
29359;BME280;16347;53.232;6.556;2023-05-11T06:02:17;101589.13;;;15.56;66.93
29359;BME280;16347;53.232;6.556;2023-05-11T06:04:45;101590.34;;;15.54;66.95
29359;BME280;16347;53.232;6.556;2023-05-11T06:07:13;101584.00;;;15.53;67.17
29359;BME280;16347;53.232;6.556;2023-05-11T06:09:43;101587.91;;;15.59;66.98
29359;BME280;16347;53.232;6.556;2023-05-11T06:12:12;101592.53;;;15.58;66.95
29359;BME280;16347;53.232;6.556;2023-05-11T06:14:44;101590.66;;;15.59;66.41
29359;BME280;16347;53.232;6.556;2023-05-11T06:17:12;101582.78;;;15.56;66.60
29359;BME280;16347;53.232;6.556;2023-05-11T06:19:40;101585.53;;;15.56;66.76
29359;BME280;16347;53.232;6.556;2023-05-11T06:22:08;101582.78;;;15.56;66.83
29359;BME280;16347;53.232;6.556;2023-05-11T06:24:36;101588.47;;;15.54;66.95
29359;BME280;16347;53.232;6.556;2023-05-11T06:27:04;101596.34;;;15.49;66.55
29359;BME280;16347;53.232;6.556;2023-05-11T06:29:34;101592.72;;;15.40;66.39
29359;BME280;16347;53.232;6.556;2023-05-11T06:32:03;101585.84;;;15.45;66.55
29359;BME280;16347;53.232;6.556;2023-05-11T06:34:33;101583.66;;;15.48;66.97
29359;BME280;16347;53.232;6.556;2023-05-11T06:37:01;101585.72;;;15.54;66.91
29359;BME280;16347;53.232;6.556;2023-05-11T06:39:29;101589.66;;;15.60;66.93
29359;BME280;16347;53.232;6.556;2023-05-11T06:41:58;101592.03;;;15.63;66.55
29359;BME280;16347;53.232;6.556;2023-05-11T06:44:30;101591.69;;;15.66;66.66
29359;BME280;16347;53.232;6.556;2023-05-11T06:46:59;101595.81;;;15.70;66.24
29359;BME280;16347;53.232;6.556;2023-05-11T06:49:27;101594.25;;;15.59;66.17
29359;BME280;16347;53.232;6.556;2023-05-11T06:51:55;101596.84;;;15.61;66.33
29359;BME280;16347;53.232;6.556;2023-05-11T06:54:23;101597.16;;;15.66;66.79
29359;BME280;16347;53.232;6.556;2023-05-11T06:56:51;101596.16;;;15.67;66.94
29359;BME280;16347;53.232;6.556;2023-05-11T06:59:19;101595.44;;;15.65;66.66
29359;BME280;16347;53.232;6.556;2023-05-11T07:01:46;101594.09;;;15.61;66.59
29359;BME280;16347;53.232;6.556;2023-05-11T07:04:16;101596.66;;;15.62;66.72
29359;BME280;16347;53.232;6.556;2023-05-11T07:06:44;101595.28;;;15.66;66.80
29359;BME280;16347;53.232;6.556;2023-05-11T07:09:12;101595.13;;;15.68;67.13
29359;BME280;16347;53.232;6.556;2023-05-11T07:11:40;101592.91;;;15.63;66.39
29359;BME280;16347;53.232;6.556;2023-05-11T07:14:08;101608.66;;;15.61;66.17
29359;BME280;16347;53.232;6.556;2023-05-11T07:16:36;101599.75;;;15.59;66.95
29359;BME280;16347;53.232;6.556;2023-05-11T07:19:04;101599.59;;;15.61;66.57
29359;BME280;16347;53.232;6.556;2023-05-11T07:21:35;101605.41;;;15.66;66.95
29359;BME280;16347;53.232;6.556;2023-05-11T07:24:03;101595.81;;;15.70;66.98
29359;BME280;16347;53.232;6.556;2023-05-11T07:26:31;101614.13;;;15.77;66.96
29359;BME280;16347;53.232;6.556;2023-05-11T07:28:59;101615.81;;;15.78;66.68
29359;BME280;16347;53.232;6.556;2023-05-11T07:31:27;101611.03;;;15.80;67.24
29359;BME280;16347;53.232;6.556;2023-05-11T07:33:55;101616.53;;;15.80;66.73
29359;BME280;16347;53.232;6.556;2023-05-11T07:36:24;101614.81;;;15.79;66.62
29359;BME280;16347;53.232;6.556;2023-05-11T07:38:53;101618.41;;;15.80;67.13
29359;BME280;16347;53.232;6.556;2023-05-11T07:41:21;101621.47;;;15.85;66.96
29359;BME280;16347;53.232;6.556;2023-05-11T07:43:52;101618.56;;;15.86;66.82
29359;BME280;16347;53.232;6.556;2023-05-11T07:46:20;101623.53;;;15.91;67.15
29359;BME280;16347;53.232;6.556;2023-05-11T07:48:48;101620.78;;;15.91;67.18
29359;BME280;16347;53.232;6.556;2023-05-11T07:51:29;101623.88;;;15.88;66.92
29359;BME280;16347;53.232;6.556;2023-05-11T07:53:58;101618.56;;;15.86;66.92
29359;BME280;16347;53.232;6.556;2023-05-11T07:56:26;101612.91;;;15.88;67.00
29359;BME280;16347;53.232;6.556;2023-05-11T07:58:54;101619.75;;;15.92;67.40
29359;BME280;16347;53.232;6.556;2023-05-11T08:01:22;101614.94;;;15.94;66.76
29359;BME280;16347;53.232;6.556;2023-05-11T08:03:50;101614.09;;;15.94;66.75
29359;BME280;16347;53.232;6.556;2023-05-11T08:06:18;101620.25;;;15.96;66.93
29359;BME280;16347;53.232;6.556;2023-05-11T08:08:46;101621.31;;;15.95;66.72
29359;BME280;16347;53.232;6.556;2023-05-11T08:11:15;101618.38;;;15.96;67.06
29359;BME280;16347;53.232;6.556;2023-05-11T08:13:43;101623.34;;;15.93;66.87
29359;BME280;16347;53.232;6.556;2023-05-11T08:16:11;101614.59;;;15.89;66.97
29359;BME280;16347;53.232;6.556;2023-05-11T08:18:38;101622.47;;;15.92;66.74
29359;BME280;16347;53.232;6.556;2023-05-11T08:21:07;101633.81;;;15.89;66.77
29359;BME280;16347;53.232;6.556;2023-05-11T08:23:34;101629.84;;;15.91;67.10
29359;BME280;16347;53.232;6.556;2023-05-11T08:26:03;101633.81;;;15.89;67.19
29359;BME280;16347;53.232;6.556;2023-05-11T08:28:33;101635.19;;;15.93;67.06
29359;BME280;16347;53.232;6.556;2023-05-11T08:31:01;101644.41;;;15.92;67.01
29359;BME280;16347;53.232;6.556;2023-05-11T08:33:29;101645.78;;;15.96;67.14
29359;BME280;16347;53.232;6.556;2023-05-11T08:36:05;101645.44;;;15.99;67.25
29359;BME280;16347;53.232;6.556;2023-05-11T08:38:33;101648.38;;;15.98;66.98
29359;BME280;16347;53.232;6.556;2023-05-11T08:41:01;101653.88;;;15.98;67.49
29359;BME280;16347;53.232;6.556;2023-05-11T08:43:33;101656.06;;;16.02;67.29
29359;BME280;16347;53.232;6.556;2023-05-11T08:46:02;101659.50;;;16.04;67.10
29359;BME280;16347;53.232;6.556;2023-05-11T08:48:33;101663.94;;;16.05;67.00
29359;BME280;16347;53.232;6.556;2023-05-11T08:51:01;101669.94;;;16.09;67.42
29359;BME280;16347;53.232;6.556;2023-05-11T08:53:30;101668.56;;;16.13;67.42
29359;BME280;16347;53.232;6.556;2023-05-11T08:56:00;101658.59;;;16.12;67.46
29359;BME280;16347;53.232;6.556;2023-05-11T08:58:33;101660.53;;;16.11;67.16
29359;BME280;16347;53.232;6.556;2023-05-11T09:01:03;101661.19;;;16.13;67.20
29359;BME280;16347;53.232;6.556;2023-05-11T09:03:33;101660.34;;;16.13;67.20
29359;BME280;16347;53.232;6.556;2023-05-11T09:06:04;101655.84;;;16.20;66.96
29359;BME280;16347;53.232;6.556;2023-05-11T09:08:34;101655.50;;;16.23;66.92
29359;BME280;16347;53.232;6.556;2023-05-11T09:11:05;101654.13;;;16.27;66.88
29359;BME280;16347;53.232;6.556;2023-05-11T09:13:34;101649.66;;;16.26;66.90
29359;BME280;16347;53.232;6.556;2023-05-11T09:16:03;101648.28;;;16.30;66.93
29359;BME280;16347;53.232;6.556;2023-05-11T09:18:46;101653.41;;;16.33;66.44
29359;BME280;16347;53.232;6.556;2023-05-11T09:21:14;101649.16;;;16.30;66.15
29359;BME280;16347;53.232;6.556;2023-05-11T09:23:43;101648.44;;;16.28;66.59
29359;BME280;16347;53.232;6.556;2023-05-11T09:26:14;101646.91;;;16.34;66.80
29359;BME280;16347;53.232;6.556;2023-05-11T09:29:02;101644.47;;;16.39;66.71
29359;BME280;16347;53.232;6.556;2023-05-11T09:31:37;101644.66;;;16.37;66.87
29359;BME280;16347;53.232;6.556;2023-05-11T09:34:16;101646.69;;;16.43;66.85
29359;BME280;16347;53.232;6.556;2023-05-11T09:36:46;101654.59;;;16.38;66.79
29359;BME280;16347;53.232;6.556;2023-05-11T09:39:18;101646.34;;;16.38;66.44
29359;BME280;16347;53.232;6.556;2023-05-11T09:42:16;101658.53;;;16.44;67.26
29359;BME280;16347;53.232;6.556;2023-05-11T09:44:45;101647.34;;;16.62;67.36
29359;BME280;16347;53.232;6.556;2023-05-11T09:47:18;101649.06;;;16.47;66.08
29359;BME280;16347;53.232;6.556;2023-05-11T09:49:48;101643.94;;;16.43;66.86
29359;BME280;16347;53.232;6.556;2023-05-11T09:52:17;101654.94;;;16.43;66.40
29359;BME280;16347;53.232;6.556;2023-05-11T09:54:49;101649.59;;;16.42;66.30
29359;BME280;16347;53.232;6.556;2023-05-11T09:57:24;101649.94;;;16.47;66.20
29359;BME280;16347;53.232;6.556;2023-05-11T09:59:54;101646.16;;;16.48;65.71
29359;BME280;16347;53.232;6.556;2023-05-11T10:02:25;101647.22;;;16.55;66.33
29359;BME280;16347;53.232;6.556;2023-05-11T10:04:55;101643.53;;;16.63;65.99
29359;BME280;16347;53.232;6.556;2023-05-11T10:07:27;101652.63;;;16.71;66.38
29359;BME280;16347;53.232;6.556;2023-05-11T10:09:56;101644.69;;;16.76;65.95
29359;BME280;16347;53.232;6.556;2023-05-11T10:12:25;101653.41;;;16.80;65.21
29359;BME280;16347;53.232;6.556;2023-05-11T10:15:00;101643.78;;;16.84;65.27
29359;BME280;16347;53.232;6.556;2023-05-11T10:17:29;101645.31;;;16.86;65.13
29359;BME280;16347;53.232;6.556;2023-05-11T10:19:59;101647.53;;;16.91;64.73
29359;BME280;16347;53.232;6.556;2023-05-11T10:22:28;101644.91;;;16.98;64.80
29359;BME280;16347;53.232;6.556;2023-05-11T10:25:00;101646.41;;;17.08;64.85
29359;BME280;16347;53.232;6.556;2023-05-11T10:27:32;101641.75;;;17.09;65.07
29359;BME280;16347;53.232;6.556;2023-05-11T10:30:01;101648.41;;;17.14;65.41
29359;BME280;16347;53.232;6.556;2023-05-11T10:32:31;101651.13;;;17.22;65.26
29359;BME280;16347;53.232;6.556;2023-05-11T10:35:04;101638.16;;;17.31;64.78
29359;BME280;16347;53.232;6.556;2023-05-11T10:37:33;101634.66;;;17.37;64.82
29359;BME280;16347;53.232;6.556;2023-05-11T10:40:02;101636.00;;;17.41;64.38
29359;BME280;16347;53.232;6.556;2023-05-11T10:42:45;101642.50;;;17.48;64.06
29359;BME280;16347;53.232;6.556;2023-05-11T10:45:21;101644.00;;;17.51;64.15
29359;BME280;16347;53.232;6.556;2023-05-11T10:48:06;101649.72;;;17.49;63.22
29359;BME280;16347;53.232;6.556;2023-05-11T10:50:56;101642.97;;;17.52;63.33
29359;BME280;16347;53.232;6.556;2023-05-11T10:53:39;101642.44;;;17.56;62.94
29359;BME280;16347;53.232;6.556;2023-05-11T10:56:23;101643.28;;;17.57;62.35
29359;BME280;16347;53.232;6.556;2023-05-11T10:59:09;101635.03;;;17.57;62.57
29359;BME280;16347;53.232;6.556;2023-05-11T11:01:43;101639.69;;;17.56;62.99
29359;BME280;16347;53.232;6.556;2023-05-11T11:04:12;101644.66;;;17.53;61.59
29359;BME280;16347;53.232;6.556;2023-05-11T11:06:42;101634.41;;;17.47;62.03
29359;BME280;16347;53.232;6.556;2023-05-11T11:09:11;101641.47;;;17.49;62.14
29359;BME280;16347;53.232;6.556;2023-05-11T11:11:41;101636.09;;;17.56;62.00
29359;BME280;16347;53.232;6.556;2023-05-11T11:14:12;101636.09;;;17.56;61.79
29359;BME280;16347;53.232;6.556;2023-05-11T11:19:48;101637.06;;;17.63;62.33
29359;BME280;16347;53.232;6.556;2023-05-11T11:22:42;101637.19;;;17.69;62.20
29359;BME280;16347;53.232;6.556;2023-05-11T11:25:14;101643.91;;;17.67;62.06
29359;BME280;16347;53.232;6.556;2023-05-11T11:27:57;101645.91;;;17.73;62.08
29359;BME280;16347;53.232;6.556;2023-05-11T11:30:26;101648.00;;;17.71;61.54
29359;BME280;16347;53.232;6.556;2023-05-11T11:33:29;101650.38;;;17.74;61.89
29359;BME280;16347;53.232;6.556;2023-05-11T11:35:59;101640.34;;;17.81;61.87
29359;BME280;16347;53.232;6.556;2023-05-11T11:38:27;101647.66;;;17.88;61.81
29359;BME280;16347;53.232;6.556;2023-05-11T11:40:58;101637.41;;;17.97;60.82
29359;BME280;16347;53.232;6.556;2023-05-11T11:43:27;101637.03;;;18.00;59.33
29359;BME280;16347;53.232;6.556;2023-05-11T11:45:56;101631.34;;;18.02;59.32
29359;BME280;16347;53.232;6.556;2023-05-11T11:48:29;101629.84;;;18.14;58.50
29359;BME280;16347;53.232;6.556;2023-05-11T11:51:03;101640.94;;;18.20;59.00
29359;BME280;16347;53.232;6.556;2023-05-11T11:54:02;101631.28;;;18.24;59.11
29359;BME280;16347;53.232;6.556;2023-05-11T11:56:41;101626.25;;;18.28;58.75
29359;BME280;16347;53.232;6.556;2023-05-11T11:59:12;101629.28;;;18.33;58.45
29359;BME280;16347;53.232;6.556;2023-05-11T12:01:42;101634.13;;;18.31;56.00
29359;BME280;16347;53.232;6.556;2023-05-11T12:04:37;101627.50;;;18.55;56.39
29359;BME280;16347;53.232;6.556;2023-05-11T12:07:09;101621.81;;;18.56;56.20
29359;BME280;16347;53.232;6.556;2023-05-11T12:09:38;101629.84;;;18.58;55.43
29359;BME280;16347;53.232;6.556;2023-05-11T12:12:08;101632.69;;;18.64;55.88
29359;BME280;16347;53.232;6.556;2023-05-11T12:14:38;101627.66;;;18.68;55.66
29359;BME280;16347;53.232;6.556;2023-05-11T12:17:08;101629.38;;;18.69;56.11
29359;BME280;16347;53.232;6.556;2023-05-11T12:19:42;101635.91;;;18.68;55.72
29359;BME280;16347;53.232;6.556;2023-05-11T12:22:12;101636.13;;;18.66;54.91
29359;BME280;16347;53.232;6.556;2023-05-11T12:24:42;101628.91;;;18.65;55.42
29359;BME280;16347;53.232;6.556;2023-05-11T12:27:10;101628.34;;;18.70;55.95
29359;BME280;16347;53.232;6.556;2023-05-11T12:29:38;101627.47;;;18.69;55.57
29359;BME280;16347;53.232;6.556;2023-05-11T12:32:10;101631.66;;;18.80;55.85
29359;BME280;16347;53.232;6.556;2023-05-11T12:34:38;101626.31;;;18.78;55.49
29359;BME280;16347;53.232;6.556;2023-05-11T12:37:06;101622.50;;;18.79;55.11
29359;BME280;16347;53.232;6.556;2023-05-11T12:39:36;101614.34;;;18.71;55.87
29359;BME280;16347;53.232;6.556;2023-05-11T12:42:05;101626.88;;;18.74;56.72
29359;BME280;16347;53.232;6.556;2023-05-11T12:44:33;101619.47;;;18.74;57.71
29359;BME280;16347;53.232;6.556;2023-05-11T12:47:01;101621.44;;;18.80;57.58
29359;BME280;16347;53.232;6.556;2023-05-11T12:49:30;101622.22;;;18.74;57.16
29359;BME280;16347;53.232;6.556;2023-05-11T12:52:03;101619.22;;;18.69;56.33
29359;BME280;16347;53.232;6.556;2023-05-11T12:54:36;101623.69;;;18.56;57.09
29359;BME280;16347;53.232;6.556;2023-05-11T12:57:06;101628.34;;;18.55;57.31
29359;BME280;16347;53.232;6.556;2023-05-11T12:59:36;101625.97;;;18.52;57.53
29359;BME280;16347;53.232;6.556;2023-05-11T13:02:12;101627.69;;;18.53;57.94
29359;BME280;16347;53.232;6.556;2023-05-11T13:04:43;101629.59;;;18.53;57.44
29359;BME280;16347;53.232;6.556;2023-05-11T13:07:13;101635.28;;;18.36;57.11
29359;BME280;16347;53.232;6.556;2023-05-11T13:09:56;101629.56;;;18.38;57.16
29359;BME280;16347;53.232;6.556;2023-05-11T13:12:24;101630.22;;;18.40;57.31